sensor_id;sensor_type;location;lat;lon;timestamp;P1;durP1;ratioP1;P2;durP2;ratioP2
12334;SDS011;6233;51.560;9.986;2023-02-05T00:00:22;2.63;;;2.37;;
12334;SDS011;6233;51.560;9.986;2023-02-05T00:03:24;3.57;;;2.47;;
12334;SDS011;6233;51.560;9.986;2023-02-05T00:06:26;3.07;;;2.47;;
12334;SDS011;6233;51.560;9.986;2023-02-05T00:09:27;3.50;;;2.80;;
12334;SDS011;6233;51.560;9.986;2023-02-05T00:12:29;2.97;;;2.60;;
12334;SDS011;6233;51.560;9.986;2023-02-05T00:15:31;2.80;;;2.57;;
12334;SDS011;6233;51.560;9.986;2023-02-05T00:18:33;2.80;;;2.50;;
12334;SDS011;6233;51.560;9.986;2023-02-05T00:21:35;2.60;;;2.40;;
12334;SDS011;6233;51.560;9.986;2023-02-05T00:24:36;2.77;;;2.50;;
12334;SDS011;6233;51.560;9.986;2023-02-05T00:27:38;2.90;;;2.50;;
12334;SDS011;6233;51.560;9.986;2023-02-05T00:30:40;2.40;;;2.20;;
12334;SDS011;6233;51.560;9.986;2023-02-05T00:33:42;2.30;;;2.10;;
12334;SDS011;6233;51.560;9.986;2023-02-05T00:36:44;2.90;;;2.60;;
12334;SDS011;6233;51.560;9.986;2023-02-05T00:39:46;2.57;;;2.13;;
12334;SDS011;6233;51.560;9.986;2023-02-05T00:42:48;1.80;;;1.70;;
12334;SDS011;6233;51.560;9.986;2023-02-05T00:45:49;3.07;;;2.07;;
12334;SDS011;6233;51.560;9.986;2023-02-05T00:48:51;2.27;;;2.07;;
12334;SDS011;6233;51.560;9.986;2023-02-05T00:51:53;2.60;;;1.90;;
12334;SDS011;6233;51.560;9.986;2023-02-05T00:54:55;3.53;;;2.07;;
12334;SDS011;6233;51.560;9.986;2023-02-05T00:57:56;2.10;;;1.90;;
12334;SDS011;6233;51.560;9.986;2023-02-05T01:00:58;2.23;;;1.90;;
12334;SDS011;6233;51.560;9.986;2023-02-05T01:04:00;2.60;;;2.00;;
12334;SDS011;6233;51.560;9.986;2023-02-05T01:07:02;2.70;;;1.80;;
12334;SDS011;6233;51.560;9.986;2023-02-05T01:10:04;2.00;;;1.90;;
12334;SDS011;6233;51.560;9.986;2023-02-05T01:13:06;1.80;;;1.70;;
12334;SDS011;6233;51.560;9.986;2023-02-05T01:16:08;2.00;;;1.80;;
12334;SDS011;6233;51.560;9.986;2023-02-05T01:19:10;2.50;;;2.00;;
12334;SDS011;6233;51.560;9.986;2023-02-05T01:22:12;2.20;;;2.00;;
12334;SDS011;6233;51.560;9.986;2023-02-05T01:25:14;2.30;;;2.10;;
12334;SDS011;6233;51.560;9.986;2023-02-05T01:28:16;2.13;;;1.97;;
12334;SDS011;6233;51.560;9.986;2023-02-05T01:31:18;2.10;;;1.97;;
12334;SDS011;6233;51.560;9.986;2023-02-05T01:34:22;3.33;;;2.20;;
12334;SDS011;6233;51.560;9.986;2023-02-05T01:37:23;2.40;;;2.20;;
12334;SDS011;6233;51.560;9.986;2023-02-05T01:40:25;2.47;;;2.10;;
12334;SDS011;6233;51.560;9.986;2023-02-05T01:43:27;2.40;;;2.20;;
12334;SDS011;6233;51.560;9.986;2023-02-05T01:46:29;2.37;;;2.17;;
12334;SDS011;6233;51.560;9.986;2023-02-05T01:49:33;2.10;;;1.90;;
12334;SDS011;6233;51.560;9.986;2023-02-05T01:52:39;2.20;;;2.00;;
12334;SDS011;6233;51.560;9.986;2023-02-05T01:55:47;3.73;;;2.27;;
12334;SDS011;6233;51.560;9.986;2023-02-05T01:59:03;4.03;;;2.17;;
12334;SDS011;6233;51.560;9.986;2023-02-05T02:02:09;2.23;;;2.10;;
12334;SDS011;6233;51.560;9.986;2023-02-05T02:05:12;2.77;;;1.63;;
12334;SDS011;6233;51.560;9.986;2023-02-05T02:08:15;2.27;;;2.07;;
12334;SDS011;6233;51.560;9.986;2023-02-05T02:11:17;2.23;;;1.80;;
12334;SDS011;6233;51.560;9.986;2023-02-05T02:14:22;1.90;;;1.80;;
12334;SDS011;6233;51.560;9.986;2023-02-05T02:17:24;2.43;;;2.17;;
12334;SDS011;6233;51.560;9.986;2023-02-05T02:20:28;2.40;;;2.20;;
12334;SDS011;6233;51.560;9.986;2023-02-05T02:23:45;2.10;;;1.90;;
12334;SDS011;6233;51.560;9.986;2023-02-05T02:27:13;3.00;;;2.13;;
12334;SDS011;6233;51.560;9.986;2023-02-05T02:30:24;2.07;;;1.97;;
12334;SDS011;6233;51.560;9.986;2023-02-05T02:33:32;2.10;;;1.90;;
12334;SDS011;6233;51.560;9.986;2023-02-05T02:40:15;2.40;;;2.20;;
12334;SDS011;6233;51.560;9.986;2023-02-05T02:43:21;3.10;;;1.80;;
12334;SDS011;6233;51.560;9.986;2023-02-05T02:46:41;2.43;;;1.70;;
12334;SDS011;6233;51.560;9.986;2023-02-05T02:49:55;2.67;;;1.90;;
12334;SDS011;6233;51.560;9.986;2023-02-05T02:53:03;1.60;;;1.50;;
12334;SDS011;6233;51.560;9.986;2023-02-05T02:56:11;2.77;;;1.80;;
12334;SDS011;6233;51.560;9.986;2023-02-05T02:59:16;1.70;;;1.60;;
12334;SDS011;6233;51.560;9.986;2023-02-05T03:02:21;1.60;;;1.50;;
12334;SDS011;6233;51.560;9.986;2023-02-05T03:05:23;1.80;;;1.70;;
12334;SDS011;6233;51.560;9.986;2023-02-05T03:08:29;2.00;;;1.50;;
12334;SDS011;6233;51.560;9.986;2023-02-05T03:11:36;2.07;;;1.60;;
12334;SDS011;6233;51.560;9.986;2023-02-05T03:14:38;1.80;;;1.70;;
12334;SDS011;6233;51.560;9.986;2023-02-05T03:17:40;2.03;;;1.70;;
12334;SDS011;6233;51.560;9.986;2023-02-05T03:20:50;1.93;;;1.40;;
12334;SDS011;6233;51.560;9.986;2023-02-05T03:23:57;1.83;;;1.73;;
12334;SDS011;6233;51.560;9.986;2023-02-05T03:27:00;2.60;;;1.80;;
12334;SDS011;6233;51.560;9.986;2023-02-05T03:30:02;2.03;;;1.63;;
12334;SDS011;6233;51.560;9.986;2023-02-05T03:44:08;2.90;;;1.80;;
12334;SDS011;6233;51.560;9.986;2023-02-05T03:54:08;1.83;;;1.70;;
12334;SDS011;6233;51.560;9.986;2023-02-05T03:57:21;2.23;;;2.03;;
12334;SDS011;6233;51.560;9.986;2023-02-05T04:00:36;2.17;;;1.97;;
12334;SDS011;6233;51.560;9.986;2023-02-05T04:03:39;2.50;;;2.10;;
12334;SDS011;6233;51.560;9.986;2023-02-05T04:06:41;2.13;;;2.00;;
12334;SDS011;6233;51.560;9.986;2023-02-05T04:09:44;2.53;;;2.33;;
12334;SDS011;6233;51.560;9.986;2023-02-05T04:12:45;2.77;;;2.30;;
12334;SDS011;6233;51.560;9.986;2023-02-05T04:15:47;2.13;;;1.93;;
12334;SDS011;6233;51.560;9.986;2023-02-05T04:18:50;3.37;;;2.60;;
12334;SDS011;6233;51.560;9.986;2023-02-05T04:21:52;3.83;;;2.70;;
12334;SDS011;6233;51.560;9.986;2023-02-05T04:24:53;2.67;;;2.43;;
12334;SDS011;6233;51.560;9.986;2023-02-05T04:27:56;3.00;;;2.17;;
12334;SDS011;6233;51.560;9.986;2023-02-05T04:30:58;3.70;;;2.93;;
12334;SDS011;6233;51.560;9.986;2023-02-05T04:34:00;3.23;;;2.93;;
12334;SDS011;6233;51.560;9.986;2023-02-05T04:37:01;3.17;;;2.73;;
12334;SDS011;6233;51.560;9.986;2023-02-05T04:40:03;3.90;;;3.00;;
12334;SDS011;6233;51.560;9.986;2023-02-05T04:43:05;4.67;;;3.30;;
12334;SDS011;6233;51.560;9.986;2023-02-05T04:46:08;3.30;;;3.00;;
12334;SDS011;6233;51.560;9.986;2023-02-05T04:49:10;3.53;;;2.87;;
12334;SDS011;6233;51.560;9.986;2023-02-05T04:52:12;3.40;;;2.77;;
12334;SDS011;6233;51.560;9.986;2023-02-05T04:55:14;3.27;;;2.97;;
12334;SDS011;6233;51.560;9.986;2023-02-05T04:58:16;2.70;;;2.50;;
12334;SDS011;6233;51.560;9.986;2023-02-05T05:01:19;5.10;;;3.70;;
12334;SDS011;6233;51.560;9.986;2023-02-05T05:04:22;5.27;;;3.97;;
12334;SDS011;6233;51.560;9.986;2023-02-05T05:07:23;3.70;;;3.40;;
12334;SDS011;6233;51.560;9.986;2023-02-05T05:10:25;4.97;;;3.73;;
12334;SDS011;6233;51.560;9.986;2023-02-05T05:13:27;3.93;;;3.57;;
12334;SDS011;6233;51.560;9.986;2023-02-05T05:16:29;4.63;;;3.77;;
12334;SDS011;6233;51.560;9.986;2023-02-05T05:19:30;4.20;;;3.80;;
12334;SDS011;6233;51.560;9.986;2023-02-05T05:22:32;4.73;;;3.67;;
12334;SDS011;6233;51.560;9.986;2023-02-05T05:25:39;6.27;;;3.90;;
12334;SDS011;6233;51.560;9.986;2023-02-05T05:28:42;4.07;;;3.70;;
12334;SDS011;6233;51.560;9.986;2023-02-05T05:31:44;5.67;;;4.10;;
12334;SDS011;6233;51.560;9.986;2023-02-05T05:34:46;4.50;;;4.10;;
12334;SDS011;6233;51.560;9.986;2023-02-05T05:37:47;3.50;;;3.20;;
12334;SDS011;6233;51.560;9.986;2023-02-05T05:40:49;4.47;;;3.80;;
12334;SDS011;6233;51.560;9.986;2023-02-05T05:44:09;4.70;;;4.03;;
12334;SDS011;6233;51.560;9.986;2023-02-05T05:47:11;4.97;;;4.47;;
12334;SDS011;6233;51.560;9.986;2023-02-05T05:50:13;4.37;;;3.97;;
12334;SDS011;6233;51.560;9.986;2023-02-05T05:53:14;4.53;;;4.13;;
12334;SDS011;6233;51.560;9.986;2023-02-05T05:56:17;4.33;;;3.70;;
12334;SDS011;6233;51.560;9.986;2023-02-05T05:59:18;5.10;;;3.80;;
12334;SDS011;6233;51.560;9.986;2023-02-05T06:02:20;4.60;;;3.80;;
12334;SDS011;6233;51.560;9.986;2023-02-05T06:05:22;6.67;;;4.67;;
12334;SDS011;6233;51.560;9.986;2023-02-05T06:08:24;4.07;;;3.67;;
12334;SDS011;6233;51.560;9.986;2023-02-05T06:11:25;4.47;;;3.80;;
12334;SDS011;6233;51.560;9.986;2023-02-05T06:14:27;3.60;;;3.30;;
12334;SDS011;6233;51.560;9.986;2023-02-05T06:17:29;4.90;;;3.20;;
12334;SDS011;6233;51.560;9.986;2023-02-05T06:20:30;4.80;;;3.30;;
12334;SDS011;6233;51.560;9.986;2023-02-05T06:23:32;3.30;;;2.97;;
12334;SDS011;6233;51.560;9.986;2023-02-05T06:26:34;3.67;;;3.03;;
12334;SDS011;6233;51.560;9.986;2023-02-05T06:29:39;3.43;;;3.13;;
12334;SDS011;6233;51.560;9.986;2023-02-05T06:32:41;3.63;;;3.27;;
12334;SDS011;6233;51.560;9.986;2023-02-05T06:35:42;2.87;;;2.67;;
12334;SDS011;6233;51.560;9.986;2023-02-05T06:38:44;3.90;;;3.17;;
12334;SDS011;6233;51.560;9.986;2023-02-05T06:41:46;3.43;;;2.77;;
12334;SDS011;6233;51.560;9.986;2023-02-05T06:44:48;3.83;;;2.63;;
12334;SDS011;6233;51.560;9.986;2023-02-05T06:47:49;4.33;;;2.80;;
12334;SDS011;6233;51.560;9.986;2023-02-05T06:50:53;4.90;;;3.10;;
12334;SDS011;6233;51.560;9.986;2023-02-05T06:53:55;3.20;;;3.00;;
12334;SDS011;6233;51.560;9.986;2023-02-05T06:56:57;3.07;;;2.80;;
12334;SDS011;6233;51.560;9.986;2023-02-05T06:59:59;3.67;;;2.67;;
12334;SDS011;6233;51.560;9.986;2023-02-05T07:03:00;3.60;;;3.03;;
12334;SDS011;6233;51.560;9.986;2023-02-05T07:06:03;3.50;;;3.20;;
12334;SDS011;6233;51.560;9.986;2023-02-05T07:09:06;3.33;;;3.03;;
12334;SDS011;6233;51.560;9.986;2023-02-05T07:12:08;3.13;;;2.83;;
12334;SDS011;6233;51.560;9.986;2023-02-05T07:15:09;3.40;;;3.10;;
12334;SDS011;6233;51.560;9.986;2023-02-05T07:18:12;3.33;;;3.03;;
12334;SDS011;6233;51.560;9.986;2023-02-05T07:21:14;3.20;;;2.90;;
12334;SDS011;6233;51.560;9.986;2023-02-05T07:24:25;3.40;;;3.10;;
12334;SDS011;6233;51.560;9.986;2023-02-05T07:27:27;3.20;;;2.90;;
12334;SDS011;6233;51.560;9.986;2023-02-05T07:30:30;4.10;;;3.33;;
12334;SDS011;6233;51.560;9.986;2023-02-05T07:33:35;3.40;;;3.00;;
12334;SDS011;6233;51.560;9.986;2023-02-05T07:36:58;3.47;;;3.17;;
12334;SDS011;6233;51.560;9.986;2023-02-05T07:39:59;3.33;;;3.03;;
12334;SDS011;6233;51.560;9.986;2023-02-05T07:43:01;3.70;;;2.93;;
12334;SDS011;6233;51.560;9.986;2023-02-05T07:46:11;4.00;;;3.30;;
12334;SDS011;6233;51.560;9.986;2023-02-05T07:49:14;3.57;;;3.20;;
12334;SDS011;6233;51.560;9.986;2023-02-05T07:52:16;4.03;;;3.27;;
12334;SDS011;6233;51.560;9.986;2023-02-05T07:55:53;5.27;;;3.93;;
12334;SDS011;6233;51.560;9.986;2023-02-05T07:58:55;3.93;;;3.63;;
12334;SDS011;6233;51.560;9.986;2023-02-05T08:01:57;5.20;;;4.30;;
12334;SDS011;6233;51.560;9.986;2023-02-05T08:04:58;3.97;;;3.60;;
12334;SDS011;6233;51.560;9.986;2023-02-05T08:08:00;4.37;;;3.97;;
12334;SDS011;6233;51.560;9.986;2023-02-05T08:11:03;5.10;;;4.00;;
12334;SDS011;6233;51.560;9.986;2023-02-05T08:14:06;3.80;;;3.40;;
12334;SDS011;6233;51.560;9.986;2023-02-05T08:17:08;4.67;;;3.63;;
12334;SDS011;6233;51.560;9.986;2023-02-05T08:20:12;4.37;;;3.47;;
12334;SDS011;6233;51.560;9.986;2023-02-05T08:23:59;3.63;;;3.33;;
12334;SDS011;6233;51.560;9.986;2023-02-05T08:27:01;3.40;;;3.10;;
12334;SDS011;6233;51.560;9.986;2023-02-05T08:30:03;3.30;;;3.00;;
12334;SDS011;6233;51.560;9.986;2023-02-05T08:33:06;4.80;;;2.93;;
12334;SDS011;6233;51.560;9.986;2023-02-05T08:36:08;5.40;;;3.73;;
12334;SDS011;6233;51.560;9.986;2023-02-05T08:39:10;3.17;;;2.87;;
12334;SDS011;6233;51.560;9.986;2023-02-05T08:42:12;3.97;;;3.40;;
12334;SDS011;6233;51.560;9.986;2023-02-05T08:45:14;4.30;;;3.50;;
12334;SDS011;6233;51.560;9.986;2023-02-05T08:48:16;4.73;;;3.23;;
12334;SDS011;6233;51.560;9.986;2023-02-05T08:51:18;3.70;;;3.40;;
12334;SDS011;6233;51.560;9.986;2023-02-05T08:54:23;3.43;;;3.13;;
12334;SDS011;6233;51.560;9.986;2023-02-05T08:57:26;4.37;;;3.77;;
12334;SDS011;6233;51.560;9.986;2023-02-05T09:00:29;5.43;;;3.50;;
12334;SDS011;6233;51.560;9.986;2023-02-05T09:03:32;3.70;;;3.40;;
12334;SDS011;6233;51.560;9.986;2023-02-05T09:06:34;3.73;;;3.40;;
12334;SDS011;6233;51.560;9.986;2023-02-05T09:09:35;6.03;;;3.97;;
12334;SDS011;6233;51.560;9.986;2023-02-05T09:12:38;5.13;;;3.50;;
12334;SDS011;6233;51.560;9.986;2023-02-05T09:15:41;4.40;;;3.77;;
12334;SDS011;6233;51.560;9.986;2023-02-05T09:18:44;4.87;;;3.70;;
12334;SDS011;6233;51.560;9.986;2023-02-05T09:21:46;6.90;;;4.23;;
12334;SDS011;6233;51.560;9.986;2023-02-05T09:24:47;4.57;;;4.17;;
12334;SDS011;6233;51.560;9.986;2023-02-05T09:27:49;5.87;;;4.60;;
12334;SDS011;6233;51.560;9.986;2023-02-05T09:30:51;6.37;;;4.43;;
12334;SDS011;6233;51.560;9.986;2023-02-05T09:33:53;4.93;;;4.47;;
12334;SDS011;6233;51.560;9.986;2023-02-05T09:36:55;5.30;;;4.63;;
12334;SDS011;6233;51.560;9.986;2023-02-05T09:39:59;5.83;;;4.37;;
12334;SDS011;6233;51.560;9.986;2023-02-05T09:47:03;7.13;;;4.53;;
12334;SDS011;6233;51.560;9.986;2023-02-05T09:50:28;4.80;;;4.27;;
12334;SDS011;6233;51.560;9.986;2023-02-05T09:56:56;6.97;;;5.07;;
12334;SDS011;6233;51.560;9.986;2023-02-05T10:00:04;6.17;;;4.53;;
12334;SDS011;6233;51.560;9.986;2023-02-05T10:03:27;4.53;;;4.13;;
12334;SDS011;6233;51.560;9.986;2023-02-05T10:10:31;6.70;;;4.50;;
12334;SDS011;6233;51.560;9.986;2023-02-05T10:13:36;5.13;;;4.63;;
12334;SDS011;6233;51.560;9.986;2023-02-05T10:16:57;5.67;;;5.07;;
12334;SDS011;6233;51.560;9.986;2023-02-05T10:27:26;8.30;;;6.60;;
12334;SDS011;6233;51.560;9.986;2023-02-05T10:30:45;8.40;;;6.27;;
12334;SDS011;6233;51.560;9.986;2023-02-05T10:33:58;8.50;;;6.77;;
12334;SDS011;6233;51.560;9.986;2023-02-05T10:37:20;6.77;;;5.53;;
12334;SDS011;6233;51.560;9.986;2023-02-05T10:40:30;5.83;;;4.83;;
12334;SDS011;6233;51.560;9.986;2023-02-05T10:43:40;6.13;;;5.43;;
12334;SDS011;6233;51.560;9.986;2023-02-05T10:46:49;6.83;;;5.93;;
12334;SDS011;6233;51.560;9.986;2023-02-05T10:49:59;8.00;;;5.80;;
12334;SDS011;6233;51.560;9.986;2023-02-05T10:53:16;8.07;;;5.90;;
12334;SDS011;6233;51.560;9.986;2023-02-05T10:56:22;7.47;;;5.87;;
12334;SDS011;6233;51.560;9.986;2023-02-05T10:59:28;8.67;;;5.73;;
12334;SDS011;6233;51.560;9.986;2023-02-05T11:02:38;7.10;;;5.43;;
12334;SDS011;6233;51.560;9.986;2023-02-05T11:05:42;6.70;;;5.37;;
12334;SDS011;6233;51.560;9.986;2023-02-05T11:16:42;10.93;;;8.13;;
12334;SDS011;6233;51.560;9.986;2023-02-05T11:26:16;9.63;;;8.33;;
12334;SDS011;6233;51.560;9.986;2023-02-05T11:29:22;10.90;;;8.30;;
12334;SDS011;6233;51.560;9.986;2023-02-05T11:32:31;10.33;;;8.47;;
12334;SDS011;6233;51.560;9.986;2023-02-05T11:35:37;11.00;;;9.00;;
12334;SDS011;6233;51.560;9.986;2023-02-05T11:38:46;9.87;;;8.47;;
12334;SDS011;6233;51.560;9.986;2023-02-05T11:41:50;8.00;;;6.80;;
12334;SDS011;6233;51.560;9.986;2023-02-05T11:44:56;8.27;;;6.67;;
12334;SDS011;6233;51.560;9.986;2023-02-05T11:48:25;9.13;;;8.23;;
12334;SDS011;6233;51.560;9.986;2023-02-05T12:01:35;9.90;;;8.37;;
12334;SDS011;6233;51.560;9.986;2023-02-05T12:04:45;9.60;;;8.70;;
12334;SDS011;6233;51.560;9.986;2023-02-05T12:08:05;12.87;;;9.87;;
12334;SDS011;6233;51.560;9.986;2023-02-05T12:19:14;12.03;;;9.87;;
12334;SDS011;6233;51.560;9.986;2023-02-05T12:32:38;14.00;;;10.77;;
12334;SDS011;6233;51.560;9.986;2023-02-05T12:39:37;14.43;;;12.63;;
12334;SDS011;6233;51.560;9.986;2023-02-05T12:46:33;15.63;;;12.07;;
12334;SDS011;6233;51.560;9.986;2023-02-05T12:57:10;16.27;;;11.80;;
12334;SDS011;6233;51.560;9.986;2023-02-05T13:00:17;14.60;;;11.40;;
12334;SDS011;6233;51.560;9.986;2023-02-05T13:03:26;15.50;;;11.77;;
12334;SDS011;6233;51.560;9.986;2023-02-05T13:06:40;16.37;;;11.43;;
12334;SDS011;6233;51.560;9.986;2023-02-05T13:09:48;15.10;;;11.83;;
12334;SDS011;6233;51.560;9.986;2023-02-05T13:12:58;15.10;;;11.80;;
12334;SDS011;6233;51.560;9.986;2023-02-05T13:16:06;15.73;;;12.13;;
12334;SDS011;6233;51.560;9.986;2023-02-05T13:19:23;14.27;;;10.97;;
12334;SDS011;6233;51.560;9.986;2023-02-05T13:22:34;16.30;;;11.83;;
12334;SDS011;6233;51.560;9.986;2023-02-05T13:26:12;12.73;;;11.17;;
12334;SDS011;6233;51.560;9.986;2023-02-05T13:29:16;14.00;;;11.03;;
12334;SDS011;6233;51.560;9.986;2023-02-05T13:32:21;16.33;;;11.80;;
12334;SDS011;6233;51.560;9.986;2023-02-05T13:35:38;14.60;;;11.57;;
12334;SDS011;6233;51.560;9.986;2023-02-05T13:52:45;16.17;;;13.27;;
12334;SDS011;6233;51.560;9.986;2023-02-05T13:59:35;17.17;;;12.90;;
12334;SDS011;6233;51.560;9.986;2023-02-05T14:02:41;16.47;;;12.87;;
12334;SDS011;6233;51.560;9.986;2023-02-05T14:05:45;15.47;;;12.53;;
12334;SDS011;6233;51.560;9.986;2023-02-05T14:08:50;15.20;;;12.47;;
12334;SDS011;6233;51.560;9.986;2023-02-05T14:12:12;16.07;;;12.83;;
12334;SDS011;6233;51.560;9.986;2023-02-05T14:15:39;16.83;;;13.50;;
12334;SDS011;6233;51.560;9.986;2023-02-05T14:18:47;15.77;;;12.47;;
12334;SDS011;6233;51.560;9.986;2023-02-05T14:22:02;14.27;;;11.43;;
12334;SDS011;6233;51.560;9.986;2023-02-05T14:35:46;15.20;;;12.43;;
12334;SDS011;6233;51.560;9.986;2023-02-05T14:41:58;13.27;;;11.50;;
12334;SDS011;6233;51.560;9.986;2023-02-05T14:45:05;14.97;;;12.37;;
12334;SDS011;6233;51.560;9.986;2023-02-05T14:51:53;15.53;;;11.17;;
12334;SDS011;6233;51.560;9.986;2023-02-05T14:58:20;11.47;;;10.27;;
12334;SDS011;6233;51.560;9.986;2023-02-05T15:07:45;12.73;;;11.00;;
12334;SDS011;6233;51.560;9.986;2023-02-05T15:23:59;15.00;;;12.57;;
12334;SDS011;6233;51.560;9.986;2023-02-05T15:27:14;15.97;;;12.43;;
12334;SDS011;6233;51.560;9.986;2023-02-05T15:30:24;22.97;;;16.10;;
12334;SDS011;6233;51.560;9.986;2023-02-05T15:33:33;20.93;;;16.13;;
12334;SDS011;6233;51.560;9.986;2023-02-05T15:37:05;21.67;;;15.77;;
12334;SDS011;6233;51.560;9.986;2023-02-05T15:43:24;24.20;;;16.83;;
12334;SDS011;6233;51.560;9.986;2023-02-05T15:46:27;22.97;;;15.33;;
12334;SDS011;6233;51.560;9.986;2023-02-05T15:49:45;17.87;;;14.60;;
12334;SDS011;6233;51.560;9.986;2023-02-05T15:52:58;18.60;;;14.07;;
12334;SDS011;6233;51.560;9.986;2023-02-05T15:56:10;18.37;;;13.53;;
12334;SDS011;6233;51.560;9.986;2023-02-05T15:59:20;19.13;;;13.67;;
12334;SDS011;6233;51.560;9.986;2023-02-05T16:02:26;16.50;;;13.93;;
12334;SDS011;6233;51.560;9.986;2023-02-05T16:05:30;17.67;;;14.43;;
12334;SDS011;6233;51.560;9.986;2023-02-05T16:12:19;20.20;;;15.67;;
12334;SDS011;6233;51.560;9.986;2023-02-05T16:15:21;20.23;;;15.67;;
12334;SDS011;6233;51.560;9.986;2023-02-05T16:18:35;20.13;;;15.30;;
12334;SDS011;6233;51.560;9.986;2023-02-05T16:21:39;20.70;;;15.40;;
12334;SDS011;6233;51.560;9.986;2023-02-05T16:24:46;16.00;;;12.80;;
12334;SDS011;6233;51.560;9.986;2023-02-05T16:27:50;16.33;;;13.93;;
12334;SDS011;6233;51.560;9.986;2023-02-05T16:30:53;15.27;;;11.67;;
12334;SDS011;6233;51.560;9.986;2023-02-05T16:34:00;12.87;;;10.97;;
12334;SDS011;6233;51.560;9.986;2023-02-05T16:37:13;14.93;;;11.27;;
12334;SDS011;6233;51.560;9.986;2023-02-05T16:40:27;14.83;;;11.80;;
12334;SDS011;6233;51.560;9.986;2023-02-05T16:43:36;17.47;;;13.63;;
12334;SDS011;6233;51.560;9.986;2023-02-05T16:46:39;18.00;;;13.90;;
12334;SDS011;6233;51.560;9.986;2023-02-05T16:49:41;21.83;;;15.53;;
12334;SDS011;6233;51.560;9.986;2023-02-05T16:52:54;21.43;;;16.70;;
12334;SDS011;6233;51.560;9.986;2023-02-05T16:59:27;18.67;;;14.90;;
12334;SDS011;6233;51.560;9.986;2023-02-05T17:02:34;16.70;;;13.77;;
12334;SDS011;6233;51.560;9.986;2023-02-05T17:05:39;17.23;;;14.23;;
12334;SDS011;6233;51.560;9.986;2023-02-05T17:08:42;18.97;;;14.40;;
12334;SDS011;6233;51.560;9.986;2023-02-05T17:11:52;18.27;;;13.13;;
12334;SDS011;6233;51.560;9.986;2023-02-05T17:15:01;18.00;;;13.97;;
12334;SDS011;6233;51.560;9.986;2023-02-05T17:18:20;21.27;;;15.20;;
12334;SDS011;6233;51.560;9.986;2023-02-05T17:21:28;19.97;;;15.00;;
12334;SDS011;6233;51.560;9.986;2023-02-05T17:24:37;20.47;;;16.60;;
12334;SDS011;6233;51.560;9.986;2023-02-05T17:27:39;18.03;;;13.67;;
12334;SDS011;6233;51.560;9.986;2023-02-05T17:30:42;17.33;;;12.57;;
12334;SDS011;6233;51.560;9.986;2023-02-05T17:33:48;14.60;;;11.40;;
12334;SDS011;6233;51.560;9.986;2023-02-05T17:36:54;15.97;;;10.70;;
12334;SDS011;6233;51.560;9.986;2023-02-05T17:39:55;16.20;;;11.37;;
12334;SDS011;6233;51.560;9.986;2023-02-05T17:42:57;16.30;;;11.37;;
12334;SDS011;6233;51.560;9.986;2023-02-05T17:46:02;15.80;;;12.00;;
12334;SDS011;6233;51.560;9.986;2023-02-05T17:49:04;18.73;;;12.07;;
12334;SDS011;6233;51.560;9.986;2023-02-05T17:52:06;17.53;;;12.03;;
12334;SDS011;6233;51.560;9.986;2023-02-05T17:55:12;15.67;;;11.27;;
12334;SDS011;6233;51.560;9.986;2023-02-05T17:58:24;14.30;;;10.23;;
12334;SDS011;6233;51.560;9.986;2023-02-05T18:01:25;17.27;;;12.57;;
12334;SDS011;6233;51.560;9.986;2023-02-05T18:04:27;18.90;;;11.37;;
12334;SDS011;6233;51.560;9.986;2023-02-05T18:07:31;16.70;;;10.67;;
12334;SDS011;6233;51.560;9.986;2023-02-05T18:10:38;12.77;;;10.30;;
12334;SDS011;6233;51.560;9.986;2023-02-05T18:13:39;13.60;;;10.07;;
12334;SDS011;6233;51.560;9.986;2023-02-05T18:16:41;13.43;;;10.80;;
12334;SDS011;6233;51.560;9.986;2023-02-05T18:19:43;16.40;;;11.53;;
12334;SDS011;6233;51.560;9.986;2023-02-05T18:22:45;16.10;;;11.40;;
12334;SDS011;6233;51.560;9.986;2023-02-05T18:25:47;14.57;;;10.57;;
12334;SDS011;6233;51.560;9.986;2023-02-05T18:28:49;15.07;;;10.80;;
12334;SDS011;6233;51.560;9.986;2023-02-05T18:31:51;13.73;;;10.23;;
12334;SDS011;6233;51.560;9.986;2023-02-05T18:34:53;15.73;;;10.97;;
12334;SDS011;6233;51.560;9.986;2023-02-05T18:37:55;14.90;;;9.83;;
12334;SDS011;6233;51.560;9.986;2023-02-05T18:41:10;16.20;;;10.70;;
12334;SDS011;6233;51.560;9.986;2023-02-05T18:44:21;14.07;;;9.50;;
12334;SDS011;6233;51.560;9.986;2023-02-05T18:47:23;16.07;;;9.90;;
12334;SDS011;6233;51.560;9.986;2023-02-05T18:50:25;12.20;;;8.53;;
12334;SDS011;6233;51.560;9.986;2023-02-05T18:53:29;13.17;;;9.30;;
12334;SDS011;6233;51.560;9.986;2023-02-05T18:56:32;13.63;;;8.97;;
12334;SDS011;6233;51.560;9.986;2023-02-05T18:59:34;14.17;;;9.57;;
12334;SDS011;6233;51.560;9.986;2023-02-05T19:02:40;12.50;;;8.87;;
12334;SDS011;6233;51.560;9.986;2023-02-05T19:05:42;13.83;;;8.63;;
12334;SDS011;6233;51.560;9.986;2023-02-05T19:08:43;13.77;;;9.23;;
12334;SDS011;6233;51.560;9.986;2023-02-05T19:11:45;12.70;;;8.50;;
12334;SDS011;6233;51.560;9.986;2023-02-05T19:14:47;12.33;;;9.13;;
12334;SDS011;6233;51.560;9.986;2023-02-05T19:21:50;13.83;;;9.17;;
12334;SDS011;6233;51.560;9.986;2023-02-05T19:24:57;16.97;;;11.20;;
12334;SDS011;6233;51.560;9.986;2023-02-05T19:27:59;14.57;;;10.97;;
12334;SDS011;6233;51.560;9.986;2023-02-05T19:31:04;18.83;;;13.27;;
12334;SDS011;6233;51.560;9.986;2023-02-05T19:34:08;22.70;;;13.60;;
12334;SDS011;6233;51.560;9.986;2023-02-05T19:37:10;21.50;;;14.03;;
12334;SDS011;6233;51.560;9.986;2023-02-05T19:40:12;21.40;;;12.43;;
12334;SDS011;6233;51.560;9.986;2023-02-05T19:43:15;20.17;;;13.63;;
12334;SDS011;6233;51.560;9.986;2023-02-05T19:46:19;16.07;;;12.07;;
12334;SDS011;6233;51.560;9.986;2023-02-05T19:49:26;17.37;;;11.40;;
12334;SDS011;6233;51.560;9.986;2023-02-05T19:52:28;19.50;;;12.53;;
12334;SDS011;6233;51.560;9.986;2023-02-05T19:55:31;19.90;;;12.73;;
12334;SDS011;6233;51.560;9.986;2023-02-05T19:58:33;17.60;;;12.13;;
12334;SDS011;6233;51.560;9.986;2023-02-05T20:01:40;16.37;;;11.40;;
12334;SDS011;6233;51.560;9.986;2023-02-05T20:04:44;19.47;;;11.83;;
12334;SDS011;6233;51.560;9.986;2023-02-05T20:07:50;15.53;;;11.80;;
12334;SDS011;6233;51.560;9.986;2023-02-05T20:11:00;20.30;;;11.83;;
12334;SDS011;6233;51.560;9.986;2023-02-05T20:14:03;16.57;;;12.10;;
12334;SDS011;6233;51.560;9.986;2023-02-05T20:17:07;15.43;;;10.93;;
12334;SDS011;6233;51.560;9.986;2023-02-05T20:20:09;17.97;;;11.63;;
12334;SDS011;6233;51.560;9.986;2023-02-05T20:23:31;14.13;;;10.97;;
12334;SDS011;6233;51.560;9.986;2023-02-05T20:30:56;14.50;;;8.87;;
12334;SDS011;6233;51.560;9.986;2023-02-05T20:34:18;13.83;;;9.70;;
12334;SDS011;6233;51.560;9.986;2023-02-05T20:37:22;16.43;;;11.20;;
12334;SDS011;6233;51.560;9.986;2023-02-05T20:40:26;18.87;;;12.07;;
12334;SDS011;6233;51.560;9.986;2023-02-05T20:43:28;19.23;;;12.77;;
12334;SDS011;6233;51.560;9.986;2023-02-05T20:46:30;15.80;;;12.00;;
12334;SDS011;6233;51.560;9.986;2023-02-05T20:49:35;21.77;;;13.97;;
12334;SDS011;6233;51.560;9.986;2023-02-05T20:52:39;26.20;;;14.30;;
12334;SDS011;6233;51.560;9.986;2023-02-05T20:55:41;20.33;;;12.73;;
12334;SDS011;6233;51.560;9.986;2023-02-05T20:58:43;22.50;;;13.37;;
12334;SDS011;6233;51.560;9.986;2023-02-05T21:01:44;20.87;;;12.80;;
12334;SDS011;6233;51.560;9.986;2023-02-05T21:04:46;23.87;;;14.00;;
12334;SDS011;6233;51.560;9.986;2023-02-05T21:07:48;24.53;;;15.37;;
12334;SDS011;6233;51.560;9.986;2023-02-05T21:10:51;23.90;;;14.60;;
12334;SDS011;6233;51.560;9.986;2023-02-05T21:13:52;23.17;;;13.83;;
12334;SDS011;6233;51.560;9.986;2023-02-05T21:17:15;19.87;;;12.80;;
12334;SDS011;6233;51.560;9.986;2023-02-05T21:20:16;23.37;;;13.10;;
12334;SDS011;6233;51.560;9.986;2023-02-05T21:23:18;24.13;;;14.07;;
12334;SDS011;6233;51.560;9.986;2023-02-05T21:26:24;21.83;;;14.50;;
12334;SDS011;6233;51.560;9.986;2023-02-05T21:29:28;25.27;;;14.97;;
12334;SDS011;6233;51.560;9.986;2023-02-05T21:32:29;21.60;;;14.97;;
12334;SDS011;6233;51.560;9.986;2023-02-05T21:35:35;21.33;;;14.03;;